createdAt,value
2019-03-12T00:01:19.390Z,67.71
2019-03-12T00:03:49.310Z,66.72
2019-03-12T00:06:19.530Z,67.42
2019-03-12T00:08:49.541Z,67.46
2019-03-12T00:11:19.543Z,67.92
2019-03-12T00:13:49.527Z,67.81
2019-03-12T00:16:19.464Z,67.34
2019-03-12T00:18:50.513Z,67.42
2019-03-12T00:21:20.340Z,67.59
2019-03-12T00:23:50.280Z,67.70
2019-03-12T00:26:20.100Z,67.25
2019-03-12T00:28:50.039Z,67.03
2019-03-12T00:31:19.935Z,67.20
2019-03-12T00:33:50.084Z,66.57
2019-03-12T00:36:20.039Z,67.21
2019-03-12T00:38:50.070Z,66.97
2019-03-12T00:41:20.321Z,66.58
2019-03-12T00:43:50.322Z,65.97
2019-03-12T00:46:20.122Z,66.77
2019-03-12T00:48:50.134Z,66.94
2019-03-12T00:51:19.940Z,66.98
2019-03-12T00:53:49.813Z,66.82
2019-03-12T00:56:19.658Z,66.94
2019-03-12T00:58:49.684Z,67.29
2019-03-12T01:01:19.566Z,67.69
2019-03-12T01:03:49.478Z,67.61
2019-03-12T01:06:19.427Z,66.69
2019-03-12T01:08:49.335Z,66.98
2019-03-12T01:11:19.647Z,66.69
2019-03-12T01:13:49.566Z,67.22
2019-03-12T01:16:19.596Z,66.74
2019-03-12T01:18:49.641Z,67.68
2019-03-12T01:21:19.652Z,67.82
2019-03-12T01:23:49.920Z,67.66
2019-03-12T01:26:19.857Z,69.14
2019-03-12T01:28:49.832Z,68.91
2019-03-12T01:31:19.841Z,69.88
2019-03-12T01:33:49.755Z,70.15
2019-03-12T01:36:19.613Z,69.51
2019-03-12T01:38:49.480Z,69.11
2019-03-12T01:41:19.343Z,68.76
2019-03-12T01:43:49.308Z,68.05
2019-03-12T01:46:19.282Z,68.58
2019-03-12T01:48:49.218Z,68.16
2019-03-12T01:51:19.083Z,68.37
2019-03-12T01:53:48.969Z,68.45
2019-03-12T01:56:18.933Z,68.42
2019-03-12T01:58:48.988Z,68.20
2019-03-12T02:01:18.895Z,69.32
2019-03-12T02:03:48.914Z,68.20
2019-03-12T02:06:18.852Z,68.47
2019-03-12T02:08:48.917Z,68.73
2019-03-12T02:11:18.815Z,68.91
2019-03-12T02:13:48.682Z,68.83
2019-03-12T02:16:19.480Z,68.61
2019-03-12T02:18:49.551Z,68.77
2019-03-12T02:21:19.456Z,68.06
2019-03-12T02:23:49.397Z,68.31
2019-03-12T02:26:19.397Z,68.28
2019-03-12T02:28:49.324Z,68.43
2019-03-12T02:31:19.243Z,68.03
2019-03-12T02:33:49.202Z,68.03
2019-03-12T02:36:19.096Z,68.44
2019-03-12T02:38:49.029Z,67.68
2019-03-12T02:41:18.919Z,68.17
2019-03-12T02:43:48.893Z,67.86
2019-03-12T02:46:18.730Z,67.90
2019-03-12T02:48:48.711Z,68.27
2019-03-12T02:51:18.625Z,68.56
2019-03-12T02:53:48.687Z,68.60
2019-03-12T02:56:18.588Z,68.37
2019-03-12T02:58:48.698Z,68.37
2019-03-12T03:01:18.596Z,68.33
2019-03-12T03:03:48.552Z,68.84
2019-03-12T03:06:40.479Z,68.59
2019-03-12T03:09:10.497Z,68.55
2019-03-12T03:11:40.487Z,68.66
2019-03-12T03:14:33.547Z,68.64
2019-03-12T03:17:03.576Z,68.46
2019-03-12T03:19:33.633Z,68.61
2019-03-12T03:22:03.610Z,68.83
2019-03-12T03:24:33.553Z,68.33
2019-03-12T03:27:03.485Z,68.02
2019-03-12T03:29:33.542Z,68.66
2019-03-12T03:32:03.477Z,69.08
2019-03-12T03:34:33.450Z,69.09
2019-03-12T03:37:03.469Z,68.80
2019-03-12T03:39:33.393Z,68.86
2019-03-12T03:42:03.400Z,69.14
2019-03-12T03:44:33.375Z,68.74
2019-03-12T03:47:03.253Z,68.50
2019-03-12T03:49:33.137Z,68.68
2019-03-12T03:52:03.075Z,68.63
2019-03-12T03:54:32.953Z,68.03
2019-03-12T03:57:02.895Z,68.21
2019-03-12T03:59:32.802Z,68.88
2019-03-12T04:02:02.666Z,68.26
2019-03-12T04:04:33.628Z,68.04
2019-03-12T04:07:03.616Z,68.59
2019-03-12T04:09:33.468Z,68.34
2019-03-12T04:12:03.505Z,68.02
2019-03-12T04:14:33.470Z,68.43
2019-03-12T04:17:03.481Z,68.26
2019-03-12T04:19:33.439Z,68.48
2019-03-12T04:22:03.377Z,67.86
2019-03-12T04:24:33.338Z,68.36
2019-03-12T04:27:03.317Z,67.43
2019-03-12T04:29:33.287Z,67.58
2019-03-12T04:32:03.289Z,68.16
2019-03-12T04:34:36.166Z,67.94
2019-03-12T04:37:06.103Z,67.79
2019-03-12T04:39:35.941Z,67.21
2019-03-12T04:42:06.240Z,67.79
2019-03-12T04:44:36.124Z,67.35
2019-03-12T04:47:06.152Z,68.01
2019-03-12T04:49:36.090Z,67.98
2019-03-12T04:52:06.025Z,67.50
2019-03-12T04:54:35.963Z,67.50
2019-03-12T04:57:05.993Z,67.29
2019-03-12T04:59:35.910Z,67.47
2019-03-12T05:02:05.922Z,67.66
2019-03-12T05:04:36.103Z,67.95
2019-03-12T05:07:07.023Z,67.62
2019-03-12T05:09:36.858Z,67.41
2019-03-12T05:12:06.796Z,67.63
2019-03-12T05:14:38.057Z,67.47
2019-03-12T05:17:25.524Z,66.79
2019-03-12T05:19:55.386Z,67.18
2019-03-12T05:22:25.945Z,66.91
2019-03-12T05:24:55.785Z,66.99
2019-03-12T05:27:25.812Z,67.32
2019-03-12T05:29:55.670Z,66.85
2019-03-12T05:32:25.575Z,67.27
2019-03-12T05:34:57.142Z,67.22
2019-03-12T05:37:27.068Z,67.20
2019-03-12T05:39:57.090Z,65.87
2019-03-12T05:42:26.880Z,66.84
2019-03-12T05:44:56.784Z,66.94
2019-03-12T05:47:26.696Z,66.92
2019-03-12T05:49:56.631Z,66.21
2019-03-12T05:52:26.538Z,66.72
2019-03-12T05:54:56.412Z,66.03
2019-03-12T05:57:26.312Z,66.61
2019-03-12T05:59:56.262Z,66.96
2019-03-12T06:02:26.111Z,67.09
2019-03-12T06:04:55.958Z,66.50
2019-03-12T06:07:25.874Z,66.09
2019-03-12T06:09:55.854Z,67.01
2019-03-12T06:12:25.727Z,66.90
2019-03-12T06:14:55.596Z,66.22
2019-03-12T06:17:25.623Z,65.34
2019-03-12T06:19:55.609Z,65.03
2019-03-12T06:22:25.488Z,64.96
2019-03-12T06:24:55.395Z,65.32
2019-03-12T06:27:25.236Z,65.19
2019-03-12T06:29:55.118Z,66.29
2019-03-12T06:32:41.243Z,65.79
2019-03-12T06:35:15.332Z,65.36
2019-03-12T06:38:07.285Z,65.21
2019-03-12T06:40:55.258Z,64.88
2019-03-12T06:43:46.995Z,65.20
2019-03-12T06:46:39.664Z,64.76
2019-03-12T06:49:30.952Z,65.28
2019-03-12T06:52:18.830Z,64.74
2019-03-12T06:55:00.476Z,63.10
2019-03-12T06:57:42.922Z,62.80
2019-03-12T07:00:32.973Z,63.08
2019-03-12T07:03:20.790Z,63.20
2019-03-12T07:06:16.223Z,61.97
2019-03-12T07:09:03.706Z,63.11
2019-03-12T07:11:57.317Z,62.62
2019-03-12T07:14:44.651Z,62.74
2019-03-12T07:17:19.234Z,63.41
2019-03-12T07:20:06.905Z,62.75
2019-03-12T07:22:55.487Z,62.28
2019-03-12T07:25:32.322Z,62.88
2019-03-12T07:28:21.337Z,63.37
2019-03-12T07:31:10.248Z,63.00
2019-03-12T07:34:01.591Z,62.38
2019-03-12T07:37:02.360Z,63.51
2019-03-12T07:40:00.491Z,62.70
2019-03-12T07:42:55.274Z,62.04
2019-03-12T07:45:42.069Z,62.39
2019-03-12T07:48:28.438Z,61.61
2019-03-12T07:51:32.425Z,62.19
2019-03-12T07:54:39.514Z,62.53
2019-03-12T07:57:43.509Z,62.13
2019-03-12T08:00:31.284Z,60.86
2019-03-12T08:03:21.534Z,59.56
2019-03-12T08:06:10.445Z,59.13
2019-03-12T08:08:59.264Z,56.66
2019-03-12T08:11:33.481Z,56.64
2019-03-12T08:14:17.913Z,57.94
2019-03-12T08:17:25.017Z,57.89
2019-03-12T08:20:13.857Z,56.84
2019-03-12T08:23:06.431Z,55.88
2019-03-12T08:25:44.590Z,54.90
2019-03-12T08:28:36.362Z,54.51
2019-03-12T08:31:31.644Z,53.45
2019-03-12T08:34:16.200Z,50.88
2019-03-12T08:37:07.904Z,50.97
2019-03-12T08:39:51.027Z,51.25
2019-03-12T08:42:54.535Z,51.12
2019-03-12T08:45:26.222Z,50.50
2019-03-12T08:48:03.107Z,50.76
2019-03-12T08:50:58.046Z,51.48
2019-03-12T08:53:39.708Z,52.23
2019-03-12T08:56:27.751Z,53.28
2019-03-12T08:59:11.646Z,52.75
2019-03-12T09:02:02.416Z,54.07
2019-03-12T09:07:40.203Z,52.50
2019-03-12T09:10:20.760Z,52.07
2019-03-12T09:13:21.875Z,51.48
2019-03-12T09:16:10.882Z,51.71
2019-03-12T09:19:01.285Z,51.77
2019-03-12T09:21:45.722Z,52.46
2019-03-12T09:24:26.854Z,51.15
2019-03-12T09:27:13.747Z,50.91
2019-03-12T09:30:08.621Z,50.29
2019-03-12T09:32:56.944Z,51.32
2019-03-12T09:35:45.815Z,49.87
2019-03-12T09:38:31.861Z,50.24
2019-03-12T09:41:19.753Z,50.29
2019-03-12T09:44:10.347Z,50.25
2019-03-12T09:46:50.785Z,50.70
2019-03-12T09:49:42.792Z,49.90
2019-03-12T09:52:21.976Z,48.91
2019-03-12T09:54:56.662Z,48.62
2019-03-12T09:57:38.254Z,47.27
2019-03-12T10:00:32.057Z,47.37
2019-03-12T10:03:27.468Z,47.20
2019-03-12T10:06:09.422Z,47.47
2019-03-12T10:09:01.381Z,48.53
2019-03-12T10:11:47.878Z,49.78
2019-03-12T10:14:29.903Z,49.12
2019-03-12T10:17:11.229Z,48.23
2019-03-12T10:19:58.884Z,47.71
2019-03-12T10:22:46.509Z,46.61
2019-03-12T10:25:30.342Z,44.35
2019-03-12T10:28:19.340Z,42.17
2019-03-12T10:31:19.939Z,41.48
2019-03-12T10:34:04.438Z,41.95
2019-03-12T10:36:40.579Z,41.81
2019-03-12T10:40:05.912Z,41.99
2019-03-12T10:42:41.907Z,41.91
2019-03-12T10:45:25.199Z,41.16
2019-03-12T10:47:55.572Z,42.73
2019-03-12T10:50:25.625Z,42.37
2019-03-12T10:52:55.593Z,42.71
2019-03-12T10:55:25.604Z,41.64
2019-03-12T10:57:55.577Z,40.44
2019-03-12T11:00:25.726Z,41.94
2019-03-12T11:02:55.719Z,41.95
2019-03-12T11:05:25.762Z,41.03
2019-03-12T11:07:55.867Z,42.03
2019-03-12T11:10:25.970Z,42.46
2019-03-12T11:12:56.016Z,40.72
2019-03-12T11:15:26.063Z,40.21
2019-03-12T11:17:56.094Z,40.80
2019-03-12T11:20:26.062Z,39.57
2019-03-12T11:22:56.503Z,38.89
2019-03-12T11:25:28.157Z,38.76
2019-03-12T11:27:58.189Z,38.54
2019-03-12T11:30:28.287Z,38.43
2019-03-12T11:32:58.315Z,37.59
2019-03-12T11:35:38.172Z,38.81
2019-03-12T11:37:59.991Z,38.39
2019-03-12T11:40:32.258Z,37.39
2019-03-12T11:43:01.576Z,38.92
2019-03-12T11:45:36.852Z,37.28
2019-03-12T11:48:03.268Z,36.62
2019-03-12T11:50:34.077Z,35.61
2019-03-12T11:53:04.281Z,35.34
2019-03-12T11:55:34.258Z,35.69
2019-03-12T11:58:04.209Z,35.00
2019-03-12T12:00:42.733Z,36.27
2019-03-12T12:03:12.725Z,34.96
2019-03-12T12:05:42.711Z,35.11
2019-03-12T12:08:12.964Z,33.17
2019-03-12T12:10:43.093Z,34.17
2019-03-12T12:13:13.042Z,34.11
2019-03-12T12:15:43.099Z,34.72
2019-03-12T12:18:13.116Z,35.61
2019-03-12T12:20:43.063Z,34.04
2019-03-12T12:23:13.022Z,36.82
2019-03-12T12:25:42.909Z,35.73
2019-03-12T12:28:12.918Z,34.18
2019-03-12T12:30:42.887Z,35.96
2019-03-12T12:33:12.900Z,33.78
2019-03-12T12:35:42.799Z,34.18
2019-03-12T12:38:12.818Z,32.56
2019-03-12T12:40:42.718Z,33.18
2019-03-12T12:43:12.734Z,32.42
2019-03-12T12:45:42.702Z,33.48
2019-03-12T12:48:12.767Z,33.11
2019-03-12T12:50:42.746Z,34.22
2019-03-12T12:53:12.700Z,33.54
2019-03-12T12:55:42.620Z,32.16
2019-03-12T12:58:12.893Z,32.38
2019-03-12T13:00:43.303Z,32.75
2019-03-12T13:03:13.408Z,32.65
2019-03-12T13:05:43.276Z,32.46
2019-03-12T13:08:17.008Z,33.82
2019-03-12T13:10:46.907Z,32.78
2019-03-12T13:13:16.972Z,31.50
2019-03-12T13:15:46.879Z,31.61
2019-03-12T13:18:16.902Z,32.21
2019-03-12T13:20:46.927Z,31.96
2019-03-12T13:23:16.859Z,31.35
2019-03-12T13:25:46.776Z,32.59
2019-03-12T13:28:16.685Z,30.87
2019-03-12T13:30:46.644Z,30.96
2019-03-12T13:33:16.587Z,31.91
2019-03-12T13:35:49.296Z,31.75
2019-03-12T13:38:18.294Z,31.62
2019-03-12T13:40:48.397Z,29.50
2019-03-12T13:43:18.338Z,30.53
2019-03-12T13:45:48.365Z,30.12
2019-03-12T13:48:18.392Z,29.94
2019-03-12T13:50:48.402Z,29.67
2019-03-12T13:53:18.428Z,30.38
2019-03-12T13:55:48.537Z,28.34
2019-03-12T13:58:18.758Z,30.12
2019-03-12T14:00:48.717Z,30.10
2019-03-12T14:03:18.665Z,28.47
2019-03-12T14:05:48.571Z,27.80
2019-03-12T14:08:18.561Z,28.85
2019-03-12T14:10:48.454Z,29.17
2019-03-12T14:13:18.593Z,28.57
2019-03-12T14:15:49.719Z,28.79
2019-03-12T14:18:19.706Z,27.70
2019-03-12T14:20:58.691Z,29.78
2019-03-12T14:23:34.455Z,28.61
2019-03-12T14:26:04.735Z,28.21
2019-03-12T14:28:34.797Z,26.85
2019-03-12T14:31:05.577Z,27.89
2019-03-12T14:33:35.727Z,28.12
2019-03-12T14:36:05.784Z,27.33
2019-03-12T14:38:35.733Z,26.67
2019-03-12T14:41:05.945Z,27.43
2019-03-12T14:43:35.892Z,27.42
2019-03-12T14:46:06.133Z,26.42
2019-03-12T14:48:44.286Z,26.73
2019-03-12T14:51:29.836Z,27.86
2019-03-12T14:54:00.011Z,27.48
2019-03-12T14:56:31.193Z,26.08
2019-03-12T14:59:01.386Z,27.01
2019-03-12T15:01:31.414Z,26.83
2019-03-12T15:04:01.403Z,26.13
2019-03-12T15:06:31.347Z,26.78
2019-03-12T15:09:01.301Z,25.86
2019-03-12T15:11:32.863Z,26.11
2019-03-12T15:14:02.840Z,25.15
2019-03-12T15:16:32.754Z,25.39
2019-03-12T15:19:02.689Z,25.90
2019-03-12T15:21:32.761Z,25.53
2019-03-12T15:24:02.647Z,25.71
2019-03-12T15:26:32.594Z,26.47
2019-03-12T15:29:02.516Z,26.43
2019-03-12T15:31:32.474Z,26.61
2019-03-12T15:34:02.446Z,26.03
2019-03-12T15:36:32.473Z,26.61
2019-03-12T15:39:02.289Z,26.52
2019-03-12T15:41:33.863Z,26.56
2019-03-12T15:44:04.099Z,26.54
2019-03-12T15:46:34.159Z,27.29
2019-03-12T15:49:04.211Z,26.95
2019-03-12T15:51:34.179Z,27.50
2019-03-12T15:54:04.487Z,26.45
2019-03-12T15:56:34.424Z,26.67
2019-03-12T15:59:04.392Z,27.29
2019-03-12T16:01:34.293Z,27.98
2019-03-12T16:04:04.220Z,28.59
2019-03-12T16:06:35.229Z,29.87
2019-03-12T16:09:07.384Z,29.39
2019-03-12T16:11:37.713Z,29.27
2019-03-12T16:14:07.720Z,30.18
2019-03-12T16:16:38.742Z,30.15
2019-03-12T16:19:08.720Z,30.78
2019-03-12T16:21:40.455Z,31.26
2019-03-12T16:24:10.235Z,31.24
2019-03-12T16:26:40.205Z,31.45
2019-03-12T16:29:10.020Z,31.93
2019-03-12T16:31:40.063Z,32.29
2019-03-12T16:34:10.203Z,32.38
2019-03-12T16:36:40.216Z,32.51
2019-03-12T16:39:10.299Z,32.90
2019-03-12T16:41:40.271Z,32.89
2019-03-12T16:44:10.308Z,33.49
2019-03-12T16:46:40.338Z,34.36
2019-03-12T16:49:10.303Z,34.12
2019-03-12T16:51:40.130Z,34.38
2019-03-12T16:54:10.000Z,34.06
2019-03-12T16:56:45.130Z,34.90
2019-03-12T16:59:11.654Z,34.98
2019-03-12T17:01:41.585Z,35.37
2019-03-12T17:04:11.541Z,35.84
2019-03-12T17:06:41.499Z,35.92
2019-03-12T17:09:11.582Z,35.92
2019-03-12T17:11:41.955Z,36.24
2019-03-12T17:14:11.855Z,36.44
2019-03-12T17:16:41.908Z,36.13
2019-03-12T17:19:11.820Z,36.61
2019-03-12T17:21:41.816Z,36.63
2019-03-12T17:24:11.713Z,37.00
2019-03-12T17:26:41.678Z,36.89
2019-03-12T17:29:11.533Z,37.03
2019-03-12T17:31:41.541Z,37.35
2019-03-12T17:34:11.386Z,37.81
2019-03-12T17:36:41.252Z,38.18
2019-03-12T17:39:11.241Z,38.42
2019-03-12T17:41:42.615Z,39.46
2019-03-12T17:44:12.532Z,38.96
2019-03-12T17:46:43.956Z,38.41
2019-03-12T17:49:13.840Z,39.39
2019-03-12T17:51:43.768Z,39.07
2019-03-12T17:54:13.606Z,38.76
2019-03-12T17:56:43.569Z,39.39
2019-03-12T17:59:14.248Z,38.55
2019-03-12T18:01:44.223Z,39.51
2019-03-12T18:04:14.079Z,39.63
2019-03-12T18:06:44.080Z,40.48
2019-03-12T18:09:14.243Z,40.73
2019-03-12T18:11:44.332Z,41.40
2019-03-12T18:14:14.230Z,41.97
2019-03-12T18:16:44.233Z,41.63
2019-03-12T18:19:14.142Z,41.81
2019-03-12T18:21:44.256Z,42.20
2019-03-12T18:24:14.128Z,42.79
2019-03-12T18:26:44.133Z,42.72
2019-03-12T18:29:14.074Z,42.96
2019-03-12T18:31:43.911Z,43.13
2019-03-12T18:34:13.749Z,43.56
2019-03-12T18:36:43.664Z,43.48
2019-03-12T18:39:13.620Z,43.60
2019-03-12T18:41:43.619Z,43.80
2019-03-12T18:44:13.548Z,43.81
2019-03-12T18:46:43.442Z,43.10
2019-03-12T18:49:13.395Z,43.45
2019-03-12T18:51:43.360Z,43.44
2019-03-12T18:54:13.270Z,43.78
2019-03-12T18:56:43.223Z,43.83
2019-03-12T18:59:13.081Z,44.21
2019-03-12T19:01:43.040Z,44.18
2019-03-12T19:04:12.875Z,44.33
2019-03-12T19:06:42.851Z,44.56
2019-03-12T19:09:12.803Z,44.83
2019-03-12T19:11:42.768Z,44.92
2019-03-12T19:14:12.818Z,44.83
2019-03-12T19:16:42.704Z,44.81
2019-03-12T19:19:12.710Z,44.54
2019-03-12T19:21:42.634Z,44.75
2019-03-12T19:24:13.704Z,44.78
2019-03-12T19:26:43.694Z,45.82
2019-03-12T19:29:13.669Z,44.89
2019-03-12T19:32:06.420Z,45.04
2019-03-12T19:34:37.239Z,45.36
2019-03-12T19:37:08.261Z,45.36
2019-03-12T19:39:38.637Z,45.63
2019-03-12T19:42:08.669Z,45.57
2019-03-12T19:44:38.692Z,45.93
2019-03-12T19:47:08.701Z,46.37
2019-03-12T19:49:38.620Z,45.73
2019-03-12T19:52:08.714Z,45.97
2019-03-12T19:54:38.652Z,45.31
2019-03-12T19:57:08.696Z,44.82
2019-03-12T19:59:38.685Z,44.67
2019-03-12T20:02:16.175Z,44.64
2019-03-12T20:04:47.159Z,44.48
2019-03-12T20:07:14.006Z,43.73
2019-03-12T20:09:50.353Z,44.04
2019-03-12T20:12:53.411Z,43.34
2019-03-12T20:16:12.481Z,43.20
2019-03-12T20:19:19.704Z,42.73
2019-03-12T20:22:35.097Z,43.07
2019-03-12T20:25:49.931Z,42.82
2019-03-12T20:29:03.485Z,42.60
2019-03-12T20:32:32.417Z,42.95
2019-03-12T20:35:43.689Z,42.49
2019-03-12T20:38:49.625Z,42.18
2019-03-12T20:41:55.883Z,42.84
2019-03-12T20:45:07.097Z,41.98
2019-03-12T20:48:09.338Z,42.27
2019-03-12T20:51:12.970Z,42.34
2019-03-12T20:54:18.055Z,42.46
2019-03-12T20:57:29.969Z,42.82
2019-03-12T21:00:37.602Z,42.94
2019-03-12T21:04:05.769Z,42.79
2019-03-12T21:07:44.588Z,42.39
2019-03-12T21:11:11.211Z,42.97
2019-03-12T21:14:52.058Z,42.83
2019-03-12T21:18:17.251Z,42.33
2019-03-12T21:21:18.793Z,41.84
2019-03-12T21:24:19.891Z,41.55
2019-03-12T21:27:23.856Z,41.91
2019-03-12T21:29:52.863Z,41.35
2019-03-12T21:32:23.005Z,41.57
2019-03-12T21:34:53.037Z,41.83
2019-03-12T21:37:23.062Z,42.22
2019-03-12T21:39:55.601Z,41.89
2019-03-12T21:42:25.510Z,42.47
2019-03-12T21:44:56.882Z,41.95
2019-03-12T21:47:26.871Z,42.18
2019-03-12T21:49:56.945Z,42.11
2019-03-12T21:52:27.012Z,41.71
2019-03-12T21:54:56.976Z,41.60
2019-03-12T21:57:26.931Z,41.53
2019-03-12T21:59:57.075Z,41.11
2019-03-12T22:02:28.155Z,41.11
2019-03-12T22:04:58.178Z,46.30
2019-03-12T22:07:28.171Z,45.56
2019-03-12T22:09:58.133Z,40.37
2019-03-12T22:12:28.072Z,43.78
2019-03-12T22:14:57.914Z,40.84
2019-03-12T22:17:28.968Z,41.54
2019-03-12T22:19:59.047Z,39.75
2019-03-12T22:22:46.616Z,39.35
2019-03-12T22:25:17.708Z,37.17
2019-03-12T22:27:47.684Z,37.63
2019-03-12T22:30:19.977Z,38.11
2019-03-12T22:32:50.033Z,38.38
2019-03-12T22:35:20.198Z,38.00
2019-03-12T22:37:50.298Z,37.63
2019-03-12T22:40:20.339Z,38.45
2019-03-12T22:42:50.307Z,38.02
2019-03-12T22:45:20.299Z,38.34
2019-03-12T22:47:50.328Z,38.32
2019-03-12T22:50:20.365Z,38.29
2019-03-12T22:52:50.391Z,38.12
2019-03-12T22:55:20.396Z,38.46
2019-03-12T22:57:50.677Z,38.88
2019-03-12T23:00:39.164Z,39.33
2019-03-12T23:03:26.998Z,39.04
2019-03-12T23:06:15.000Z,39.54
2019-03-12T23:09:04.324Z,39.28
2019-03-12T23:11:36.034Z,39.85
2019-03-12T23:14:07.047Z,40.54
2019-03-12T23:16:38.858Z,40.25
2019-03-12T23:19:08.794Z,39.92
2019-03-12T23:21:39.066Z,41.15
2019-03-12T23:24:08.989Z,41.04
2019-03-12T23:26:40.047Z,39.89
2019-03-12T23:29:10.173Z,40.46
2019-03-12T23:31:40.168Z,40.34
2019-03-12T23:34:10.173Z,40.59
2019-03-12T23:36:40.241Z,40.26
2019-03-12T23:39:10.664Z,40.32
2019-03-12T23:41:40.646Z,41.37
2019-03-12T23:44:10.773Z,41.31
2019-03-12T23:46:40.814Z,41.82
2019-03-12T23:49:10.856Z,42.17
2019-03-12T23:51:40.838Z,41.55
2019-03-12T23:54:11.079Z,41.64
2019-03-12T23:56:41.157Z,42.82
2019-03-12T23:59:11.089Z,41.85
